Bedford, Massachusetts
Current Conditions -  °F | °C
As of 12:17 PM on Saturday 20 Dec 2014 (Local Time) from KBED Reporting Station
Overcast Overcast  
Wind Chill: 29°   Ceiling: 3500
Heat Index: 33°   Visibility: 10mi
Dew Point: 22°   Wind: 5mph
Humidity: 64%   Direction: 350°N
Pressure: 30.26"   Gusts: NA
Location:  42.49°N, 71.28°W
Report Text: KBED 201717Z AUTO 35004KT 10SM SCT026 OVC035 01/M06 A3026 RMK AO2 T00061056 TSNO
Loading
Personal Weather Stations






























Interactive Weather Map New forecast layout! Learn more

10-Day Weather Forecast

Advertisements
Track Severe Weather on mobile